KPUB/PUB METAR and TAF weather

Enter ICAO airport designator
Station Type Date Time Source
KPUB METAR 2022/08/16 18:53 UTC NOAA

KPUB 161853Z 28005KT 10SM FEW120 27/14 A3019 RMK AO2 SLP156 T02720139


Station Type Date Time Source
KPUB Decoded METAR 2022/08/16 18:53 UTC NOAA

PUEBLO MEMORIAL AIRPORT, CO, United States (KPUB) 38-17N 104-30W 1420M
Aug 16, 2022 - 02:53 PM EDT / 2022.08.16 1853 UTC
Wind: from the W (280 degrees) at 6 MPH (5 KT):0
Visibility: 10 mile(s):0
Sky conditions: mostly clear
Temperature: 81.0 F (27.2 C)
Dew Point: 57.0 F (13.9 C)
Relative Humidity: 44%
Pressure (altimeter): 30.19 in. Hg (1022 hPa)
ob: KPUB 161853Z 28005KT 10SM FEW120 27/14 A3019 RMK AO2 SLP156 T02720139
cycle: 19

Station Type Date Time Source
KPUB TAF 2022/08/16 18:39 UTC NOAA

TAF KPUB 161736Z 1618/1718 VRB06KT P6SM FEW110
FM162100 34010KT P6SM VCSH SCT070
FM162300 34010G20KT P6SM VCTS BKN040CB
TEMPO 1701/1705 VRB15G25KT 3SM -TSRA BKN010CB
FM170600 VRB05KT P6SM OVC080

Example: see airport list